Anemona — 3EUT9 — position and weather

sailwx.info

Track history (hours):
 
Tides and Currents Weather Stations Pressure Air Temp Water Temp Dewpoint Dewpoint Depression Visibility Wind Speed Wind Dir Waves Ship Positions

Anemona

Last reported at 2017-Jul-19 22:08 UTC. Time now 2017-Jul-23 12:30 UTC.
Position N 24°08' E 119°05'.

Length 192 m; draft 6.9 m.

Type: Cargo ship. MMSI: 355664000.

Date/timePositionNaut miles runAvg speedWind from/ knotsBaromVisibWave heightAir tempDewpointWater temp
2017-Jul-19 22:08N 24°08' E 119°05'1010.6
2017-Jul-19 21:09N 24°15' E 119°14'210.6
2017-Jul-19 21:00N 24°16' E 119°15'1410.4
2017-Jul-19 19:40N 24°27' E 119°25'30 9.9
2017-Jul-19 16:40N 24°50' E 119°46'2 9.2
2017-Jul-19 16:30N 24°51' E 119°47'9 9.6
2017-Jul-19 15:31N 24°58' E 119°53'0 8.9
2017-Jul-19 15:30N 24°58' E 119°53'610.1
2017-Jul-19 14:52N 25°04' E 119°57'9 9.7
2017-Jul-19 13:56N 25°10' E 120°04'410.4
2017-Jul-19 13:30N 25°14' E 120°07'1910.9
2017-Jul-19 11:44N 25°29' E 120°21'22610.9
2017-Jul-18 15:05N 28°32' E 122°50'210.5
2017-Jul-18 14:53N 28°34' E 122°51'910.9
2017-Jul-18 14:00N 28°42' E 122°56'610.9
2017-Jul-18 13:29N 28°47' E 122°59'510.8
2017-Jul-18 13:00N 28°52' E 123°01'610.6
2017-Jul-18 12:24N 28°57' E 123°05'510.7
2017-Jul-18 11:54N 29°02' E 123°08'410.2
2017-Jul-18 11:30N 29°06' E 123°10'1910.7
2017-Jul-18 09:44N 29°22' E 123°20'310.7
2017-Jul-18 09:30N 29°25' E 123°21'610.7
2017-Jul-18 08:58N 29°30' E 123°24'510.5
2017-Jul-18 08:30N 29°34' E 123°26'510.6
2017-Jul-18 07:59N 29°39' E 123°29'611.0
2017-Jul-18 07:27N 29°44' E 123°32'  
Track history (hours):
 
Tides and Currents Weather Stations Pressure Air Temp Water Temp Dewpoint Dewpoint Depression Visibility Wind Speed Wind Dir Waves Ship Positions

Anemona

Last reported at 2017-Jul-19 22:08 UTC. Time now 2017-Jul-23 12:30 UTC.
Position N 24°08' E 119°05'.

Length 192 m; draft 6.9 m.

Type: Cargo ship. MMSI: 355664000.

Date/timePositionNaut miles runAvg speedWind from/ knotsBaromVisibWave heightAir tempDewpointWater temp
2017-Jul-19 22:08N 24°08' E 119°05'1010.6
2017-Jul-19 21:09N 24°15' E 119°14'210.6
2017-Jul-19 21:00N 24°16' E 119°15'1410.4
2017-Jul-19 19:40N 24°27' E 119°25'30 9.9
2017-Jul-19 16:40N 24°50' E 119°46'2 9.2
2017-Jul-19 16:30N 24°51' E 119°47'9 9.6
2017-Jul-19 15:31N 24°58' E 119°53'0 8.9
2017-Jul-19 15:30N 24°58' E 119°53'610.1
2017-Jul-19 14:52N 25°04' E 119°57'9 9.7
2017-Jul-19 13:56N 25°10' E 120°04'410.4
2017-Jul-19 13:30N 25°14' E 120°07'1910.9
2017-Jul-19 11:44N 25°29' E 120°21'22610.9
2017-Jul-18 15:05N 28°32' E 122°50'210.5
2017-Jul-18 14:53N 28°34' E 122°51'910.9
2017-Jul-18 14:00N 28°42' E 122°56'610.9
2017-Jul-18 13:29N 28°47' E 122°59'510.8
2017-Jul-18 13:00N 28°52' E 123°01'610.6
2017-Jul-18 12:24N 28°57' E 123°05'510.7
2017-Jul-18 11:54N 29°02' E 123°08'410.2
2017-Jul-18 11:30N 29°06' E 123°10'1910.7
2017-Jul-18 09:44N 29°22' E 123°20'310.7
2017-Jul-18 09:30N 29°25' E 123°21'610.7
2017-Jul-18 08:58N 29°30' E 123°24'510.5
2017-Jul-18 08:30N 29°34' E 123°26'510.6
2017-Jul-18 07:59N 29°39' E 123°29'611.0
2017-Jul-18 07:27N 29°44' E 123°32'  

Dump ship's entire track history